sensor_id;sensor_type;location;lat;lon;timestamp;temperature;humidity
70593;DHT22;58294;42.988;20.338;2023-05-02T00:00:30;358.60;1612.80
70593;DHT22;58294;42.988;20.338;2023-05-02T00:02:56;358.60;1612.80
70593;DHT22;58294;42.988;20.338;2023-05-02T00:05:22;358.60;1612.80
70593;DHT22;58294;42.988;20.338;2023-05-02T00:07:50;358.60;1612.80
70593;DHT22;58294;42.988;20.338;2023-05-02T00:10:16;358.60;1612.80
70593;DHT22;58294;42.988;20.338;2023-05-02T00:12:42;358.60;1638.40
70593;DHT22;58294;42.988;20.338;2023-05-02T00:15:08;358.60;1638.40
70593;DHT22;58294;42.988;20.338;2023-05-02T00:17:35;358.60;1638.40
70593;DHT22;58294;42.988;20.338;2023-05-02T00:20:01;358.60;1638.40
70593;DHT22;58294;42.988;20.338;2023-05-02T00:22:29;358.60;1612.80
70593;DHT22;58294;42.988;20.338;2023-05-02T00:24:56;358.60;1638.40
70593;DHT22;58294;42.988;20.338;2023-05-02T00:27:22;358.60;1638.40
70593;DHT22;58294;42.988;20.338;2023-05-02T00:29:48;358.60;1638.40
70593;DHT22;58294;42.988;20.338;2023-05-02T00:32:14;358.60;1638.40
70593;DHT22;58294;42.988;20.338;2023-05-02T00:34:39;358.50;1638.40
70593;DHT22;58294;42.988;20.338;2023-05-02T00:37:06;358.50;1638.40
70593;DHT22;58294;42.988;20.338;2023-05-02T00:39:33;358.40;1664.00
70593;DHT22;58294;42.988;20.338;2023-05-02T00:41:59;358.40;1664.00
70593;DHT22;58294;42.988;20.338;2023-05-02T00:44:26;358.40;1664.00
70593;DHT22;58294;42.988;20.338;2023-05-02T00:46:52;333.70;1664.00
70593;DHT22;58294;42.988;20.338;2023-05-02T00:49:18;333.70;1664.00
70593;DHT22;58294;42.988;20.338;2023-05-02T00:51:44;333.60;1664.00
70593;DHT22;58294;42.988;20.338;2023-05-02T00:54:12;333.60;1664.00
70593;DHT22;58294;42.988;20.338;2023-05-02T00:56:37;333.50;1664.00
70593;DHT22;58294;42.988;20.338;2023-05-02T00:59:04;333.50;1689.60
70593;DHT22;58294;42.988;20.338;2023-05-02T01:12:44;333.60;1664.00
70593;DHT22;58294;42.988;20.338;2023-05-02T01:15:16;333.60;1664.00
70593;DHT22;58294;42.988;20.338;2023-05-02T01:17:44;333.60;1689.60
70593;DHT22;58294;42.988;20.338;2023-05-02T01:20:15;333.60;1715.20
70593;DHT22;58294;42.988;20.338;2023-05-02T01:22:42;333.60;1740.80
70593;DHT22;58294;42.988;20.338;2023-05-02T01:25:30;333.60;1766.40
70593;DHT22;58294;42.988;20.338;2023-05-02T01:31:02;358.40;1715.20
70593;DHT22;58294;42.988;20.338;2023-05-02T01:33:29;358.40;1766.40
70593;DHT22;58294;42.988;20.338;2023-05-02T01:35:56;358.40;1766.40
70593;DHT22;58294;42.988;20.338;2023-05-02T01:38:24;358.40;1715.20
70593;DHT22;58294;42.988;20.338;2023-05-02T01:40:51;358.40;1715.20
70593;DHT22;58294;42.988;20.338;2023-05-02T01:43:19;358.40;1740.80
70593;DHT22;58294;42.988;20.338;2023-05-02T01:45:48;333.70;1715.20
70593;DHT22;58294;42.988;20.338;2023-05-02T01:48:15;333.70;1715.20
70593;DHT22;58294;42.988;20.338;2023-05-02T01:50:43;358.40;1766.40
70593;DHT22;58294;42.988;20.338;2023-05-02T01:53:10;358.40;1740.80
70593;DHT22;58294;42.988;20.338;2023-05-02T01:55:40;358.40;1792.00
70593;DHT22;58294;42.988;20.338;2023-05-02T01:58:08;358.40;1740.80
70593;DHT22;58294;42.988;20.338;2023-05-02T02:00:36;333.70;1740.80
70593;DHT22;58294;42.988;20.338;2023-05-02T02:03:04;333.70;1766.40
70593;DHT22;58294;42.988;20.338;2023-05-02T02:05:33;333.70;1740.80
70593;DHT22;58294;42.988;20.338;2023-05-02T02:07:59;333.60;1740.80
70593;DHT22;58294;42.988;20.338;2023-05-02T02:10:28;333.60;1740.80
70593;DHT22;58294;42.988;20.338;2023-05-02T02:13:03;333.60;1740.80
70593;DHT22;58294;42.988;20.338;2023-05-02T02:15:33;333.50;1740.80
70593;DHT22;58294;42.988;20.338;2023-05-02T02:18:04;333.50;1740.80
70593;DHT22;58294;42.988;20.338;2023-05-02T02:20:34;333.50;1740.80
70593;DHT22;58294;42.988;20.338;2023-05-02T02:23:02;333.50;1766.40
70593;DHT22;58294;42.988;20.338;2023-05-02T02:25:30;333.50;1766.40
70593;DHT22;58294;42.988;20.338;2023-05-02T02:27:57;333.50;1766.40
70593;DHT22;58294;42.988;20.338;2023-05-02T02:30:23;333.50;1766.40
70593;DHT22;58294;42.988;20.338;2023-05-02T02:32:48;333.50;1766.40
70593;DHT22;58294;42.988;20.338;2023-05-02T02:35:14;333.50;1817.60
70593;DHT22;58294;42.988;20.338;2023-05-02T02:37:53;333.40;1766.40
70593;DHT22;58294;42.988;20.338;2023-05-02T02:41:01;333.40;1766.40
70593;DHT22;58294;42.988;20.338;2023-05-02T02:49:10;333.40;1766.40
70593;DHT22;58294;42.988;20.338;2023-05-02T02:51:45;333.40;1740.80
70593;DHT22;58294;42.988;20.338;2023-05-02T02:57:16;333.40;1766.40
70593;DHT22;58294;42.988;20.338;2023-05-02T02:59:57;333.40;1740.80
70593;DHT22;58294;42.988;20.338;2023-05-02T03:02:28;333.40;1766.40
70593;DHT22;58294;42.988;20.338;2023-05-02T03:04:56;333.40;1792.00
70593;DHT22;58294;42.988;20.338;2023-05-02T03:07:22;333.40;1792.00
70593;DHT22;58294;42.988;20.338;2023-05-02T03:09:48;333.40;1766.40
70593;DHT22;58294;42.988;20.338;2023-05-02T03:12:14;333.40;1792.00
70593;DHT22;58294;42.988;20.338;2023-05-02T03:14:40;333.40;1792.00
70593;DHT22;58294;42.988;20.338;2023-05-02T03:17:06;333.40;1792.00
70593;DHT22;58294;42.988;20.338;2023-05-02T03:19:35;333.40;1817.60
70593;DHT22;58294;42.988;20.338;2023-05-02T03:22:02;333.30;1792.00
70593;DHT22;58294;42.988;20.338;2023-05-02T03:24:28;333.30;1817.60
70593;DHT22;58294;42.988;20.338;2023-05-02T03:26:55;333.30;1817.60
70593;DHT22;58294;42.988;20.338;2023-05-02T03:29:21;333.30;1817.60
70593;DHT22;58294;42.988;20.338;2023-05-02T03:31:47;333.40;1843.20
70593;DHT22;58294;42.988;20.338;2023-05-02T03:34:12;333.40;1817.60
70593;DHT22;58294;42.988;20.338;2023-05-02T03:36:38;333.40;1843.20
70593;DHT22;58294;42.988;20.338;2023-05-02T03:39:04;333.40;1817.60
70593;DHT22;58294;42.988;20.338;2023-05-02T03:41:31;333.40;1817.60
70593;DHT22;58294;42.988;20.338;2023-05-02T03:43:57;333.40;1817.60
70593;DHT22;58294;42.988;20.338;2023-05-02T03:46:23;333.40;1817.60
70593;DHT22;58294;42.988;20.338;2023-05-02T03:48:49;333.50;1843.20
70593;DHT22;58294;42.988;20.338;2023-05-02T03:51:15;333.40;1766.40
70593;DHT22;58294;42.988;20.338;2023-05-02T03:53:41;333.40;1792.00
70593;DHT22;58294;42.988;20.338;2023-05-02T03:56:07;333.30;1843.20
70593;DHT22;58294;42.988;20.338;2023-05-02T03:58:34;333.40;1894.40
70593;DHT22;58294;42.988;20.338;2023-05-02T04:01:01;333.40;1843.20
70593;DHT22;58294;42.988;20.338;2023-05-02T04:03:26;333.50;1868.80
70593;DHT22;58294;42.988;20.338;2023-05-02T04:05:56;333.50;1894.40
70593;DHT22;58294;42.988;20.338;2023-05-02T04:08:22;333.50;1894.40
70593;DHT22;58294;42.988;20.338;2023-05-02T04:10:50;333.60;1894.40
70593;DHT22;58294;42.988;20.338;2023-05-02T04:13:17;333.70;1843.20
70593;DHT22;58294;42.988;20.338;2023-05-02T04:15:44;333.60;1843.20
70593;DHT22;58294;42.988;20.338;2023-05-02T04:18:10;333.70;1894.40
70593;DHT22;58294;42.988;20.338;2023-05-02T04:20:36;333.60;1843.20
70593;DHT22;58294;42.988;20.338;2023-05-02T04:23:02;333.60;1894.40
70593;DHT22;58294;42.988;20.338;2023-05-02T04:25:27;333.70;1843.20
70593;DHT22;58294;42.988;20.338;2023-05-02T04:27:53;333.60;1843.20
70593;DHT22;58294;42.988;20.338;2023-05-02T04:30:19;333.60;1894.40
70593;DHT22;58294;42.988;20.338;2023-05-02T04:32:45;333.60;1868.80
70593;DHT22;58294;42.988;20.338;2023-05-02T04:35:11;333.70;1920.00
70593;DHT22;58294;42.988;20.338;2023-05-02T04:37:37;333.70;1894.40
70593;DHT22;58294;42.988;20.338;2023-05-02T04:40:03;358.40;1894.40
70593;DHT22;58294;42.988;20.338;2023-05-02T04:42:29;358.40;1868.80
70593;DHT22;58294;42.988;20.338;2023-05-02T04:44:55;358.40;1868.80
70593;DHT22;58294;42.988;20.338;2023-05-02T04:47:21;358.40;1894.40
70593;DHT22;58294;42.988;20.338;2023-05-02T04:49:46;358.40;1868.80
70593;DHT22;58294;42.988;20.338;2023-05-02T04:52:12;358.40;1920.00
70593;DHT22;58294;42.988;20.338;2023-05-02T04:54:39;358.40;1920.00
70593;DHT22;58294;42.988;20.338;2023-05-02T04:57:05;358.50;1868.80
70593;DHT22;58294;42.988;20.338;2023-05-02T04:59:32;358.50;1920.00
70593;DHT22;58294;42.988;20.338;2023-05-02T05:01:58;358.60;1920.00
70593;DHT22;58294;42.988;20.338;2023-05-02T05:04:24;358.60;1945.60
70593;DHT22;58294;42.988;20.338;2023-05-02T05:06:49;358.60;1894.40
70593;DHT22;58294;42.988;20.338;2023-05-02T05:09:15;358.60;1920.00
70593;DHT22;58294;42.988;20.338;2023-05-02T05:11:41;358.70;1945.60
70593;DHT22;58294;42.988;20.338;2023-05-02T05:14:11;358.70;1971.20
70593;DHT22;58294;42.988;20.338;2023-05-02T05:16:36;358.70;1945.60
70593;DHT22;58294;42.988;20.338;2023-05-02T05:19:02;358.80;1843.20
70593;DHT22;58294;42.988;20.338;2023-05-02T05:21:29;358.70;1894.40
70593;DHT22;58294;42.988;20.338;2023-05-02T05:23:55;358.80;1945.60
70593;DHT22;58294;42.988;20.338;2023-05-02T05:26:21;358.90;1945.60
70593;DHT22;58294;42.988;20.338;2023-05-02T05:28:48;358.90;1945.60
70593;DHT22;58294;42.988;20.338;2023-05-02T05:31:15;358.90;1945.60
70593;DHT22;58294;42.988;20.338;2023-05-02T05:33:42;359.10;1894.40
70593;DHT22;58294;42.988;20.338;2023-05-02T05:36:12;359.10;1894.40
70593;DHT22;58294;42.988;20.338;2023-05-02T05:38:42;359.10;1843.20
70593;DHT22;58294;42.988;20.338;2023-05-02T05:41:08;359.10;1843.20
70593;DHT22;58294;42.988;20.338;2023-05-02T05:43:34;359.00;1868.80
70593;DHT22;58294;42.988;20.338;2023-05-02T05:45:59;359.00;1843.20
70593;DHT22;58294;42.988;20.338;2023-05-02T05:48:26;359.00;1843.20
70593;DHT22;58294;42.988;20.338;2023-05-02T05:50:51;359.00;1843.20
70593;DHT22;58294;42.988;20.338;2023-05-02T05:53:18;358.90;1843.20
70593;DHT22;58294;42.988;20.338;2023-05-02T05:55:44;358.90;1843.20
70593;DHT22;58294;42.988;20.338;2023-05-02T05:58:10;359.00;1868.80
70593;DHT22;58294;42.988;20.338;2023-05-02T06:00:37;359.10;1920.00
70593;DHT22;58294;42.988;20.338;2023-05-02T06:03:04;359.10;1868.80
70593;DHT22;58294;42.988;20.338;2023-05-02T06:05:30;359.10;1920.00
70593;DHT22;58294;42.988;20.338;2023-05-02T06:07:57;359.10;1920.00
70593;DHT22;58294;42.988;20.338;2023-05-02T06:10:23;359.20;1868.80
70593;DHT22;58294;42.988;20.338;2023-05-02T06:12:49;359.20;1868.80
70593;DHT22;58294;42.988;20.338;2023-05-02T06:15:15;359.30;1894.40
70593;DHT22;58294;42.988;20.338;2023-05-02T06:17:41;359.30;1843.20
70593;DHT22;58294;42.988;20.338;2023-05-02T06:20:07;384.10;1894.40
70593;DHT22;58294;42.988;20.338;2023-05-02T06:22:34;384.10;1843.20
70593;DHT22;58294;42.988;20.338;2023-05-02T06:25:00;384.10;1868.80
70593;DHT22;58294;42.988;20.338;2023-05-02T06:27:25;384.20;1868.80
70593;DHT22;58294;42.988;20.338;2023-05-02T06:29:52;384.20;1843.20
70593;DHT22;58294;42.988;20.338;2023-05-02T06:32:19;384.20;1843.20
70593;DHT22;58294;42.988;20.338;2023-05-02T06:34:46;384.20;1868.80
70593;DHT22;58294;42.988;20.338;2023-05-02T06:37:11;384.20;1868.80
70593;DHT22;58294;42.988;20.338;2023-05-02T06:39:37;384.30;1843.20
70593;DHT22;58294;42.988;20.338;2023-05-02T06:42:03;384.40;1868.80
70593;DHT22;58294;42.988;20.338;2023-05-02T06:44:29;384.40;1817.60
70593;DHT22;58294;42.988;20.338;2023-05-02T06:46:55;384.40;1843.20
70593;DHT22;58294;42.988;20.338;2023-05-02T06:49:21;384.50;1843.20
70593;DHT22;58294;42.988;20.338;2023-05-02T06:51:47;384.50;1817.60
70593;DHT22;58294;42.988;20.338;2023-05-02T06:54:13;384.60;1843.20
70593;DHT22;58294;42.988;20.338;2023-05-02T06:56:40;384.70;1843.20
70593;DHT22;58294;42.988;20.338;2023-05-02T06:59:06;384.70;1843.20
70593;DHT22;58294;42.988;20.338;2023-05-02T07:01:32;384.80;1843.20
70593;DHT22;58294;42.988;20.338;2023-05-02T07:04:00;384.90;1817.60
70593;DHT22;58294;42.988;20.338;2023-05-02T07:06:26;384.90;1817.60
70593;DHT22;58294;42.988;20.338;2023-05-02T07:08:52;384.90;1817.60
70593;DHT22;58294;42.988;20.338;2023-05-02T07:11:18;409.60;1843.20
70593;DHT22;58294;42.988;20.338;2023-05-02T07:13:44;409.60;1817.60
70593;DHT22;58294;42.988;20.338;2023-05-02T07:16:10;409.70;1843.20
70593;DHT22;58294;42.988;20.338;2023-05-02T07:18:36;409.80;1843.20
70593;DHT22;58294;42.988;20.338;2023-05-02T07:21:02;409.90;1843.20
70593;DHT22;58294;42.988;20.338;2023-05-02T07:23:28;410.10;1843.20
70593;DHT22;58294;42.988;20.338;2023-05-02T07:25:54;410.10;1817.60
70593;DHT22;58294;42.988;20.338;2023-05-02T07:28:20;410.30;1843.20
70593;DHT22;58294;42.988;20.338;2023-05-02T07:30:45;410.40;1817.60
70593;DHT22;58294;42.988;20.338;2023-05-02T07:33:11;435.20;1817.60
70593;DHT22;58294;42.988;20.338;2023-05-02T07:35:37;435.30;1817.60
70593;DHT22;58294;42.988;20.338;2023-05-02T07:38:03;435.40;1817.60
70593;DHT22;58294;42.988;20.338;2023-05-02T07:40:29;435.50;1792.00
70593;DHT22;58294;42.988;20.338;2023-05-02T07:42:54;435.60;1792.00
70593;DHT22;58294;42.988;20.338;2023-05-02T07:45:20;435.80;1766.40
70593;DHT22;58294;42.988;20.338;2023-05-02T07:47:46;435.90;1766.40
70593;DHT22;58294;42.988;20.338;2023-05-02T07:50:12;436.10;1766.40
70593;DHT22;58294;42.988;20.338;2023-05-02T07:52:38;460.80;1740.80
70593;DHT22;58294;42.988;20.338;2023-05-02T07:55:04;460.90;1766.40
70593;DHT22;58294;42.988;20.338;2023-05-02T07:57:30;461.00;1740.80
70593;DHT22;58294;42.988;20.338;2023-05-02T07:59:56;461.20;1689.60
70593;DHT22;58294;42.988;20.338;2023-05-02T08:02:22;461.20;1689.60
70593;DHT22;58294;42.988;20.338;2023-05-02T08:04:48;461.30;1664.00
70593;DHT22;58294;42.988;20.338;2023-05-02T08:07:14;461.40;1664.00
70593;DHT22;58294;42.988;20.338;2023-05-02T08:09:40;461.50;1664.00
70593;DHT22;58294;42.988;20.338;2023-05-02T08:12:06;461.50;1664.00
70593;DHT22;58294;42.988;20.338;2023-05-02T08:14:32;461.60;1638.40
70593;DHT22;58294;42.988;20.338;2023-05-02T08:16:58;461.50;1587.20
70593;DHT22;58294;42.988;20.338;2023-05-02T08:19:25;461.60;1612.80
70593;DHT22;58294;42.988;20.338;2023-05-02T08:21:53;461.70;1587.20
70593;DHT22;58294;42.988;20.338;2023-05-02T08:24:19;461.70;1561.60
70593;DHT22;58294;42.988;20.338;2023-05-02T08:26:44;461.70;1510.40
70593;DHT22;58294;42.988;20.338;2023-05-02T08:29:10;461.60;1510.40
70593;DHT22;58294;42.988;20.338;2023-05-02T08:31:39;461.60;1510.40
70593;DHT22;58294;42.988;20.338;2023-05-02T08:34:05;461.60;1484.80
70593;DHT22;58294;42.988;20.338;2023-05-02T08:36:31;461.60;1536.00
70593;DHT22;58294;42.988;20.338;2023-05-02T08:38:57;461.70;1510.40
70593;DHT22;58294;42.988;20.338;2023-05-02T08:41:23;461.60;1510.40
70593;DHT22;58294;42.988;20.338;2023-05-02T08:43:49;486.40;1510.40
70593;DHT22;58294;42.988;20.338;2023-05-02T08:46:16;486.40;1510.40
70593;DHT22;58294;42.988;20.338;2023-05-02T08:48:43;486.40;1459.20
70593;DHT22;58294;42.988;20.338;2023-05-02T08:51:12;461.70;1433.60
70593;DHT22;58294;42.988;20.338;2023-05-02T08:53:39;461.70;1459.20
70593;DHT22;58294;42.988;20.338;2023-05-02T08:56:06;486.40;1459.20
70593;DHT22;58294;42.988;20.338;2023-05-02T08:58:33;486.50;1459.20
70593;DHT22;58294;42.988;20.338;2023-05-02T09:01:00;486.50;1459.20
70593;DHT22;58294;42.988;20.338;2023-05-02T09:03:31;486.50;1408.00
70593;DHT22;58294;42.988;20.338;2023-05-02T09:08:41;486.50;1433.60
70593;DHT22;58294;42.988;20.338;2023-05-02T09:11:11;486.50;1433.60
70593;DHT22;58294;42.988;20.338;2023-05-02T09:18:50;486.70;1408.00
70593;DHT22;58294;42.988;20.338;2023-05-02T09:21:21;486.80;1433.60
70593;DHT22;58294;42.988;20.338;2023-05-02T09:23:48;486.80;1408.00
70593;DHT22;58294;42.988;20.338;2023-05-02T09:26:27;486.80;1382.40
70593;DHT22;58294;42.988;20.338;2023-05-02T09:29:02;486.80;1356.80
70593;DHT22;58294;42.988;20.338;2023-05-02T09:31:33;486.80;1356.80
70593;DHT22;58294;42.988;20.338;2023-05-02T09:34:12;486.80;1382.40
70593;DHT22;58294;42.988;20.338;2023-05-02T09:36:49;486.80;1356.80
70593;DHT22;58294;42.988;20.338;2023-05-02T09:39:21;486.80;1331.20
70593;DHT22;58294;42.988;20.338;2023-05-02T09:41:48;486.80;1331.20
70593;DHT22;58294;42.988;20.338;2023-05-02T09:44:15;486.70;1356.80
70593;DHT22;58294;42.988;20.338;2023-05-02T09:46:47;486.80;1356.80
70593;DHT22;58294;42.988;20.338;2023-05-02T09:49:13;486.70;1356.80
70593;DHT22;58294;42.988;20.338;2023-05-02T09:51:40;486.80;1331.20
70593;DHT22;58294;42.988;20.338;2023-05-02T09:54:08;486.60;1331.20
70593;DHT22;58294;42.988;20.338;2023-05-02T09:56:55;486.60;1331.20
70593;DHT22;58294;42.988;20.338;2023-05-02T09:59:22;486.80;1382.40
70593;DHT22;58294;42.988;20.338;2023-05-02T10:01:59;486.80;1331.20
70593;DHT22;58294;42.988;20.338;2023-05-02T10:04:25;486.80;1331.20
70593;DHT22;58294;42.988;20.338;2023-05-02T10:06:53;486.90;1331.20
70593;DHT22;58294;42.988;20.338;2023-05-02T10:09:20;486.90;1331.20
70593;DHT22;58294;42.988;20.338;2023-05-02T10:11:47;487.00;1331.20
70593;DHT22;58294;42.988;20.338;2023-05-02T10:14:15;487.00;1331.20
70593;DHT22;58294;42.988;20.338;2023-05-02T10:19:50;487.00;1305.60
70593;DHT22;58294;42.988;20.338;2023-05-02T10:22:18;486.90;1305.60
70593;DHT22;58294;42.988;20.338;2023-05-02T10:24:47;486.80;1305.60
70593;DHT22;58294;42.988;20.338;2023-05-02T10:27:13;486.70;1305.60
70593;DHT22;58294;42.988;20.338;2023-05-02T10:29:39;486.60;1331.20
70593;DHT22;58294;42.988;20.338;2023-05-02T10:32:07;486.60;1305.60
70593;DHT22;58294;42.988;20.338;2023-05-02T10:34:34;486.60;1331.20
70593;DHT22;58294;42.988;20.338;2023-05-02T10:37:01;486.50;1331.20
70593;DHT22;58294;42.988;20.338;2023-05-02T10:39:27;486.60;1356.80
70593;DHT22;58294;42.988;20.338;2023-05-02T10:41:55;486.60;1356.80
70593;DHT22;58294;42.988;20.338;2023-05-02T10:44:37;486.60;1331.20
70593;DHT22;58294;42.988;20.338;2023-05-02T10:47:19;486.60;1382.40
70593;DHT22;58294;42.988;20.338;2023-05-02T11:02:55;486.60;1331.20
70593;DHT22;58294;42.988;20.338;2023-05-02T11:05:23;486.60;1331.20
70593;DHT22;58294;42.988;20.338;2023-05-02T11:07:49;486.50;1356.80
70593;DHT22;58294;42.988;20.338;2023-05-02T11:10:23;486.60;1356.80
70593;DHT22;58294;42.988;20.338;2023-05-02T11:12:55;486.60;1356.80
70593;DHT22;58294;42.988;20.338;2023-05-02T11:18:12;486.60;1356.80
70593;DHT22;58294;42.988;20.338;2023-05-02T11:20:40;486.60;1356.80
70593;DHT22;58294;42.988;20.338;2023-05-02T11:25:43;486.50;1356.80
70593;DHT22;58294;42.988;20.338;2023-05-02T11:31:01;486.60;1382.40
70593;DHT22;58294;42.988;20.338;2023-05-02T11:33:28;486.60;1382.40
70593;DHT22;58294;42.988;20.338;2023-05-02T11:35:54;486.60;1356.80
70593;DHT22;58294;42.988;20.338;2023-05-02T11:38:22;486.60;1331.20
70593;DHT22;58294;42.988;20.338;2023-05-02T11:40:53;486.60;1382.40
70593;DHT22;58294;42.988;20.338;2023-05-02T11:43:19;486.70;1356.80
70593;DHT22;58294;42.988;20.338;2023-05-02T11:45:49;486.60;1356.80
70593;DHT22;58294;42.988;20.338;2023-05-02T11:48:17;486.60;1356.80
70593;DHT22;58294;42.988;20.338;2023-05-02T11:50:49;486.60;1356.80
70593;DHT22;58294;42.988;20.338;2023-05-02T11:53:26;486.60;1356.80
70593;DHT22;58294;42.988;20.338;2023-05-02T11:55:55;486.60;1356.80
70593;DHT22;58294;42.988;20.338;2023-05-02T11:58:29;486.60;1382.40
70593;DHT22;58294;42.988;20.338;2023-05-02T12:00:57;486.60;1382.40
70593;DHT22;58294;42.988;20.338;2023-05-02T12:03:29;486.80;1382.40
70593;DHT22;58294;42.988;20.338;2023-05-02T12:05:56;486.90;1382.40
70593;DHT22;58294;42.988;20.338;2023-05-02T12:08:26;486.90;1356.80
70593;DHT22;58294;42.988;20.338;2023-05-02T12:10:56;486.90;1356.80
70593;DHT22;58294;42.988;20.338;2023-05-02T12:13:24;486.90;1356.80
70593;DHT22;58294;42.988;20.338;2023-05-02T12:15:51;486.90;1331.20
70593;DHT22;58294;42.988;20.338;2023-05-02T12:18:19;486.90;1356.80
70593;DHT22;58294;42.988;20.338;2023-05-02T12:20:49;486.90;1331.20
70593;DHT22;58294;42.988;20.338;2023-05-02T12:23:16;486.80;1331.20
70593;DHT22;58294;42.988;20.338;2023-05-02T12:25:42;486.60;1331.20
70593;DHT22;58294;42.988;20.338;2023-05-02T12:28:08;486.50;1331.20
70593;DHT22;58294;42.988;20.338;2023-05-02T12:30:36;486.50;1356.80
70593;DHT22;58294;42.988;20.338;2023-05-02T12:33:03;486.40;1331.20
70593;DHT22;58294;42.988;20.338;2023-05-02T12:35:30;461.60;1331.20
70593;DHT22;58294;42.988;20.338;2023-05-02T12:38:17;461.50;1331.20
70593;DHT22;58294;42.988;20.338;2023-05-02T12:40:51;461.20;1356.80
70593;DHT22;58294;42.988;20.338;2023-05-02T12:43:18;461.20;1356.80
70593;DHT22;58294;42.988;20.338;2023-05-02T12:45:44;461.10;1356.80
70593;DHT22;58294;42.988;20.338;2023-05-02T12:48:25;461.00;1382.40
70593;DHT22;58294;42.988;20.338;2023-05-02T12:50:52;460.90;1382.40
70593;DHT22;58294;42.988;20.338;2023-05-02T12:56:04;436.10;1356.80
70593;DHT22;58294;42.988;20.338;2023-05-02T12:58:30;436.10;1382.40
70593;DHT22;58294;42.988;20.338;2023-05-02T13:01:06;436.00;1408.00
70593;DHT22;58294;42.988;20.338;2023-05-02T13:03:32;436.00;1382.40
70593;DHT22;58294;42.988;20.338;2023-05-02T13:05:58;436.00;1408.00
70593;DHT22;58294;42.988;20.338;2023-05-02T13:08:24;436.10;1408.00
70593;DHT22;58294;42.988;20.338;2023-05-02T13:10:50;460.80;1433.60
70593;DHT22;58294;42.988;20.338;2023-05-02T13:13:16;460.90;1459.20
70593;DHT22;58294;42.988;20.338;2023-05-02T13:15:42;461.00;1459.20
70593;DHT22;58294;42.988;20.338;2023-05-02T13:18:08;461.00;1433.60
70593;DHT22;58294;42.988;20.338;2023-05-02T13:20:34;461.20;1433.60
70593;DHT22;58294;42.988;20.338;2023-05-02T13:22:59;461.20;1433.60
70593;DHT22;58294;42.988;20.338;2023-05-02T13:25:25;461.40;1433.60
70593;DHT22;58294;42.988;20.338;2023-05-02T13:27:51;461.50;1433.60
70593;DHT22;58294;42.988;20.338;2023-05-02T13:30:17;461.60;1433.60
70593;DHT22;58294;42.988;20.338;2023-05-02T13:32:42;461.70;1408.00
70593;DHT22;58294;42.988;20.338;2023-05-02T13:35:08;461.70;1382.40
70593;DHT22;58294;42.988;20.338;2023-05-02T13:37:38;486.40;1382.40
70593;DHT22;58294;42.988;20.338;2023-05-02T13:40:06;486.50;1382.40
70593;DHT22;58294;42.988;20.338;2023-05-02T13:42:31;486.50;1382.40
70593;DHT22;58294;42.988;20.338;2023-05-02T13:44:57;486.60;1382.40
70593;DHT22;58294;42.988;20.338;2023-05-02T13:47:23;486.60;1408.00
70593;DHT22;58294;42.988;20.338;2023-05-02T13:49:49;486.80;1408.00
70593;DHT22;58294;42.988;20.338;2023-05-02T13:52:15;487.00;1408.00
70593;DHT22;58294;42.988;20.338;2023-05-02T13:54:41;487.10;1408.00
70593;DHT22;58294;42.988;20.338;2023-05-02T13:57:07;487.20;1382.40
70593;DHT22;58294;42.988;20.338;2023-05-02T13:59:33;487.30;1356.80
70593;DHT22;58294;42.988;20.338;2023-05-02T14:01:58;512.00;1305.60
70593;DHT22;58294;42.988;20.338;2023-05-02T14:04:24;487.30;1305.60
70593;DHT22;58294;42.988;20.338;2023-05-02T14:06:50;487.20;1305.60
70593;DHT22;58294;42.988;20.338;2023-05-02T14:09:16;487.20;1305.60
70593;DHT22;58294;42.988;20.338;2023-05-02T14:11:42;487.20;1305.60
70593;DHT22;58294;42.988;20.338;2023-05-02T14:14:09;487.20;1280.00
70593;DHT22;58294;42.988;20.338;2023-05-02T14:16:37;487.20;1305.60
70593;DHT22;58294;42.988;20.338;2023-05-02T14:19:04;487.20;1280.00
70593;DHT22;58294;42.988;20.338;2023-05-02T14:21:30;487.20;1280.00
70593;DHT22;58294;42.988;20.338;2023-05-02T14:23:59;487.10;1280.00
70593;DHT22;58294;42.988;20.338;2023-05-02T14:26:25;487.10;1280.00
70593;DHT22;58294;42.988;20.338;2023-05-02T14:28:50;487.10;1280.00
70593;DHT22;58294;42.988;20.338;2023-05-02T14:31:18;487.10;1280.00
70593;DHT22;58294;42.988;20.338;2023-05-02T14:33:43;487.10;1280.00
70593;DHT22;58294;42.988;20.338;2023-05-02T14:36:10;487.10;1280.00
70593;DHT22;58294;42.988;20.338;2023-05-02T14:38:37;487.00;1280.00
70593;DHT22;58294;42.988;20.338;2023-05-02T14:41:02;487.00;1280.00
70593;DHT22;58294;42.988;20.338;2023-05-02T14:43:28;487.00;1254.40
70593;DHT22;58294;42.988;20.338;2023-05-02T14:45:54;486.90;1254.40
70593;DHT22;58294;42.988;20.338;2023-05-02T14:48:21;486.90;1254.40
70593;DHT22;58294;42.988;20.338;2023-05-02T14:50:46;486.80;1254.40
70593;DHT22;58294;42.988;20.338;2023-05-02T14:53:12;486.60;1254.40
70593;DHT22;58294;42.988;20.338;2023-05-02T14:55:39;486.50;1254.40
70593;DHT22;58294;42.988;20.338;2023-05-02T14:58:08;486.40;1254.40
70593;DHT22;58294;42.988;20.338;2023-05-02T15:00:35;486.40;1280.00
70593;DHT22;58294;42.988;20.338;2023-05-02T15:03:04;461.70;1280.00
70593;DHT22;58294;42.988;20.338;2023-05-02T15:05:30;461.70;1280.00
70593;DHT22;58294;42.988;20.338;2023-05-02T15:07:56;461.60;1280.00
70593;DHT22;58294;42.988;20.338;2023-05-02T15:10:22;461.60;1280.00
70593;DHT22;58294;42.988;20.338;2023-05-02T15:12:48;461.50;1254.40
70593;DHT22;58294;42.988;20.338;2023-05-02T15:15:17;461.40;1280.00
70593;DHT22;58294;42.988;20.338;2023-05-02T15:17:44;461.30;1280.00
70593;DHT22;58294;42.988;20.338;2023-05-02T15:20:10;461.30;1280.00
70593;DHT22;58294;42.988;20.338;2023-05-02T15:22:36;461.30;1280.00
70593;DHT22;58294;42.988;20.338;2023-05-02T15:25:02;461.20;1280.00
70593;DHT22;58294;42.988;20.338;2023-05-02T15:27:28;461.20;1280.00
70593;DHT22;58294;42.988;20.338;2023-05-02T15:29:54;461.20;1280.00
70593;DHT22;58294;42.988;20.338;2023-05-02T15:32:20;461.20;1280.00
70593;DHT22;58294;42.988;20.338;2023-05-02T15:34:46;461.20;1280.00